createdAt,value
2017-08-16T00:00:28.985Z,0
2017-08-16T00:01:28.976Z,0
2017-08-16T00:02:29.273Z,0
2017-08-16T00:03:28.936Z,0
2017-08-16T00:04:28.619Z,0
2017-08-16T00:05:29.225Z,0
2017-08-16T00:06:28.630Z,0
2017-08-16T00:07:28.573Z,0
2017-08-16T00:08:28.985Z,0
2017-08-16T00:09:28.553Z,0
2017-08-16T00:10:28.997Z,0
2017-08-16T00:11:28.876Z,0
2017-08-16T00:12:29.125Z,0
2017-08-16T00:13:28.831Z,0
2017-08-16T00:14:29.122Z,0
2017-08-16T00:15:28.792Z,0
2017-08-16T00:16:29.152Z,0
2017-08-16T00:17:29.190Z,0
2017-08-16T00:18:28.774Z,0
2017-08-16T00:19:28.735Z,0
2017-08-16T00:20:28.747Z,0
2017-08-16T00:21:28.737Z,0
2017-08-16T00:22:29.102Z,0
2017-08-16T00:23:29.002Z,0
2017-08-16T00:24:28.736Z,0
2017-08-16T00:25:29.031Z,0
2017-08-16T00:26:28.658Z,0
2017-08-16T00:27:28.954Z,0
2017-08-16T00:28:28.965Z,0
2017-08-16T00:29:29.002Z,0
2017-08-16T00:30:28.945Z,0
2017-08-16T00:31:29.002Z,0
2017-08-16T00:32:28.942Z,0
2017-08-16T00:33:28.903Z,0
2017-08-16T00:34:28.868Z,0
2017-08-16T00:35:28.512Z,0
2017-08-16T00:36:28.614Z,0
2017-08-16T00:37:28.561Z,0
2017-08-16T00:38:28.467Z,0
2017-08-16T00:39:28.793Z,0
2017-08-16T00:40:28.807Z,0
2017-08-16T00:41:28.443Z,0
2017-08-16T00:42:28.432Z,0
2017-08-16T00:43:28.737Z,0
2017-08-16T00:44:28.402Z,0
2017-08-16T00:45:28.402Z,0
2017-08-16T00:46:27.760Z,0
2017-08-16T00:47:28.685Z,0
2017-08-16T00:48:28.344Z,0
2017-08-16T00:49:28.656Z,0
2017-08-16T00:50:28.310Z,0
2017-08-16T00:51:28.312Z,0
2017-08-16T00:52:28.291Z,0
2017-08-16T00:53:28.591Z,0
2017-08-16T00:54:27.970Z,0
2017-08-16T00:55:27.960Z,0
2017-08-16T00:56:27.982Z,0
2017-08-16T00:57:28.583Z,0
2017-08-16T00:58:27.909Z,0
2017-08-16T00:59:28.190Z,0
2017-08-16T01:00:28.501Z,0
2017-08-16T01:01:28.173Z,0
2017-08-16T01:02:28.150Z,0
2017-08-16T01:03:28.437Z,0
2017-08-16T01:04:28.443Z,0
2017-08-16T01:05:28.428Z,0
2017-08-16T01:06:27.796Z,0
2017-08-16T01:07:27.799Z,0
2017-08-16T01:08:28.392Z,0
2017-08-16T01:09:28.392Z,0
2017-08-16T01:10:28.370Z,0
2017-08-16T01:11:28.347Z,0
2017-08-16T01:12:28.352Z,0
2017-08-16T01:13:28.342Z,0
2017-08-16T01:14:28.312Z,0
2017-08-16T01:15:27.981Z,0
2017-08-16T01:16:27.672Z,0
2017-08-16T01:17:28.257Z,0
2017-08-16T01:18:27.950Z,0
2017-08-16T01:19:27.682Z,0
2017-08-16T01:20:27.666Z,0
2017-08-16T01:21:27.621Z,0
2017-08-16T01:22:27.282Z,0
2017-08-16T01:23:27.630Z,0
2017-08-16T01:24:27.554Z,0
2017-08-16T01:25:27.250Z,0
2017-08-16T01:26:27.558Z,0
2017-08-16T01:27:27.565Z,0
2017-08-16T01:28:27.553Z,0
2017-08-16T01:29:27.799Z,0
2017-08-16T01:30:28.100Z,0
2017-08-16T01:31:27.556Z,0
2017-08-16T01:32:27.446Z,0
2017-08-16T01:33:27.453Z,0
2017-08-16T01:34:28.031Z,0
2017-08-16T01:35:27.823Z,0
2017-08-16T01:36:27.798Z,0
2017-08-16T01:37:27.693Z,0
2017-08-16T01:38:27.792Z,0
2017-08-16T01:39:27.375Z,0
2017-08-16T01:40:27.769Z,0
2017-08-16T01:41:27.934Z,0
2017-08-16T01:42:27.701Z,0
2017-08-16T01:43:27.608Z,0
2017-08-16T01:44:27.696Z,0
2017-08-16T01:45:27.297Z,0
2017-08-16T01:46:27.969Z,0
2017-08-16T01:47:27.931Z,0
2017-08-16T01:48:27.273Z,0
2017-08-16T01:49:27.522Z,0
2017-08-16T01:50:27.827Z,0
2017-08-16T01:51:27.500Z,0
2017-08-16T01:52:27.530Z,0
2017-08-16T01:53:27.486Z,0
2017-08-16T01:54:27.468Z,0
2017-08-16T01:55:27.750Z,0
2017-08-16T01:56:27.791Z,0
2017-08-16T01:57:27.481Z,0
2017-08-16T01:58:27.401Z,0
2017-08-16T01:59:27.469Z,0
2017-08-16T02:00:27.385Z,0
2017-08-16T02:01:27.368Z,0
2017-08-16T02:02:26.730Z,0
2017-08-16T02:03:27.056Z,0
2017-08-16T02:04:27.015Z,0
2017-08-16T02:05:26.676Z,0
2017-08-16T02:06:26.991Z,0
2017-08-16T02:07:27.581Z,0
2017-08-16T02:08:27.284Z,0
2017-08-16T02:09:26.660Z,0
2017-08-16T02:10:27.553Z,0
2017-08-16T02:11:26.994Z,0
2017-08-16T02:12:27.568Z,0
2017-08-16T02:13:26.900Z,0
2017-08-16T02:14:26.579Z,0
2017-08-16T02:15:26.860Z,0
2017-08-16T02:16:26.956Z,0
2017-08-16T02:17:27.455Z,0
2017-08-16T02:18:27.140Z,0
2017-08-16T02:19:26.810Z,0
2017-08-16T02:20:27.413Z,0
2017-08-16T02:21:27.093Z,0
2017-08-16T02:22:26.765Z,0
2017-08-16T02:23:27.073Z,0
2017-08-16T02:24:27.363Z,0
2017-08-16T02:25:26.725Z,0
2017-08-16T02:26:27.183Z,0
2017-08-16T02:27:27.009Z,0
2017-08-16T02:28:27.291Z,0
2017-08-16T02:29:27.007Z,0
2017-08-16T02:30:26.975Z,0
2017-08-16T02:31:26.646Z,0
2017-08-16T02:32:27.248Z,0
2017-08-16T02:33:26.949Z,0
2017-08-16T02:34:26.930Z,0
2017-08-16T02:35:26.599Z,0
2017-08-16T02:36:26.585Z,0
2017-08-16T02:37:26.582Z,0
2017-08-16T02:38:26.925Z,0
2017-08-16T02:39:26.831Z,0
2017-08-16T02:40:26.860Z,0
2017-08-16T02:41:25.902Z,0
2017-08-16T02:42:26.501Z,0
2017-08-16T02:43:26.828Z,0
2017-08-16T02:44:26.485Z,0
2017-08-16T02:45:26.752Z,0
2017-08-16T02:46:26.451Z,0
2017-08-16T02:47:26.441Z,0
2017-08-16T02:48:27.047Z,0
2017-08-16T02:49:26.430Z,0
2017-08-16T02:50:26.387Z,0
2017-08-16T02:51:26.392Z,0
2017-08-16T02:52:26.357Z,0
2017-08-16T02:53:26.361Z,0
2017-08-16T02:54:26.644Z,0
2017-08-16T02:55:26.682Z,0
2017-08-16T02:56:26.612Z,0
2017-08-16T02:57:26.299Z,0
2017-08-16T02:58:26.896Z,0
2017-08-16T02:59:26.584Z,0
2017-08-16T03:00:26.264Z,0
2017-08-16T03:01:26.550Z,0
2017-08-16T03:02:26.226Z,0
2017-08-16T03:03:26.524Z,0
2017-08-16T03:04:26.504Z,0
2017-08-16T03:05:26.493Z,0
2017-08-16T03:06:26.267Z,0
2017-08-16T03:07:26.463Z,0
2017-08-16T03:08:26.193Z,0
2017-08-16T03:09:26.745Z,0
2017-08-16T03:10:26.562Z,0
2017-08-16T03:11:26.744Z,0
2017-08-16T03:12:26.447Z,0
2017-08-16T03:13:26.393Z,0
2017-08-16T03:14:26.419Z,0
2017-08-16T03:15:26.363Z,0
2017-08-16T03:16:26.445Z,0
2017-08-16T03:17:26.661Z,0
2017-08-16T03:18:26.331Z,0
2017-08-16T03:19:26.361Z,0
2017-08-16T03:20:26.360Z,0
2017-08-16T03:21:26.632Z,0
2017-08-16T03:22:26.312Z,0
2017-08-16T03:23:26.294Z,0
2017-08-16T03:24:26.552Z,0
2017-08-16T03:25:26.245Z,0
2017-08-16T03:26:26.547Z,0
2017-08-16T03:27:26.499Z,0
2017-08-16T03:28:26.486Z,0
2017-08-16T03:29:26.500Z,0
2017-08-16T03:30:26.460Z,0
2017-08-16T03:31:26.442Z,0
2017-08-16T03:32:26.430Z,0
2017-08-16T03:33:26.123Z,0
2017-08-16T03:34:26.409Z,0
2017-08-16T03:35:26.403Z,0
2017-08-16T03:36:26.388Z,0
2017-08-16T03:37:26.367Z,0
2017-08-16T03:38:26.361Z,0
2017-08-16T03:39:26.048Z,0
2017-08-16T03:40:25.740Z,0
2017-08-16T03:41:25.992Z,0
2017-08-16T03:42:25.993Z,0
2017-08-16T03:43:25.987Z,0
2017-08-16T03:44:25.960Z,0
2017-08-16T03:45:26.264Z,0
2017-08-16T03:46:26.233Z,0
2017-08-16T03:47:25.609Z,0
2017-08-16T03:48:24.976Z,0
2017-08-16T03:49:25.865Z,0
2017-08-16T03:50:25.870Z,0
2017-08-16T03:51:25.933Z,0
2017-08-16T03:52:25.841Z,0
2017-08-16T03:53:25.832Z,0
2017-08-16T03:54:25.514Z,0
2017-08-16T03:55:26.121Z,0
2017-08-16T03:56:26.110Z,0
2017-08-16T03:57:26.075Z,0
2017-08-16T03:58:26.072Z,0
2017-08-16T03:59:26.060Z,0
2017-08-16T04:00:25.721Z,0
2017-08-16T04:01:26.032Z,0
2017-08-16T04:02:26.025Z,0
2017-08-16T04:03:26.001Z,0
2017-08-16T04:04:26.000Z,0
2017-08-16T04:05:25.987Z,0
2017-08-16T04:06:26.115Z,0
2017-08-16T04:07:25.935Z,0
2017-08-16T04:08:25.346Z,0
2017-08-16T04:09:25.401Z,0
2017-08-16T04:10:25.923Z,0
2017-08-16T04:11:25.601Z,0
2017-08-16T04:12:24.990Z,0
2017-08-16T04:13:25.265Z,0
2017-08-16T04:14:24.930Z,0
2017-08-16T04:15:25.212Z,0
2017-08-16T04:16:24.882Z,0
2017-08-16T04:17:25.541Z,0
2017-08-16T04:18:25.583Z,0
2017-08-16T04:19:25.190Z,0
2017-08-16T04:20:25.760Z,0
2017-08-16T04:21:25.484Z,0
2017-08-16T04:22:25.432Z,0
2017-08-16T04:23:25.394Z,0
2017-08-16T04:24:25.526Z,0
2017-08-16T04:25:25.130Z,0
2017-08-16T04:26:25.417Z,0
2017-08-16T04:27:25.140Z,0
2017-08-16T04:28:25.490Z,0
2017-08-16T04:29:25.646Z,5
2017-08-16T04:30:25.428Z,5
2017-08-16T04:31:25.292Z,5
2017-08-16T04:32:24.351Z,5
2017-08-16T04:33:24.360Z,5
2017-08-16T04:34:25.650Z,5
2017-08-16T04:35:25.050Z,5
2017-08-16T04:36:25.581Z,5
2017-08-16T04:37:24.908Z,10
2017-08-16T04:38:25.239Z,10
2017-08-16T04:39:25.590Z,10
2017-08-16T04:40:25.162Z,10
2017-08-16T04:41:25.162Z,10
2017-08-16T04:42:25.210Z,10
2017-08-16T04:43:25.424Z,15
2017-08-16T04:44:25.216Z,15
2017-08-16T04:45:25.094Z,15
2017-08-16T04:46:25.102Z,15
2017-08-16T04:47:24.767Z,15
2017-08-16T04:48:25.068Z,15
2017-08-16T04:49:24.753Z,15
2017-08-16T04:50:24.729Z,15
2017-08-16T04:51:25.436Z,15
2017-08-16T04:52:24.990Z,20
2017-08-16T04:53:24.992Z,20
2017-08-16T04:54:25.331Z,20
2017-08-16T04:55:24.662Z,20
2017-08-16T04:56:24.635Z,20
2017-08-16T04:57:24.647Z,20
2017-08-16T04:58:24.920Z,20
2017-08-16T04:59:25.200Z,20
2017-08-16T05:00:25.315Z,20
2017-08-16T05:01:24.569Z,20
2017-08-16T05:02:24.559Z,25
2017-08-16T05:03:24.851Z,25
2017-08-16T05:04:24.830Z,25
2017-08-16T05:05:24.820Z,25
2017-08-16T05:06:24.811Z,25
2017-08-16T05:07:24.483Z,30
2017-08-16T05:08:24.770Z,30
2017-08-16T05:09:24.149Z,30
2017-08-16T05:10:25.060Z,30
2017-08-16T05:11:24.755Z,30
2017-08-16T05:12:24.791Z,30
2017-08-16T05:13:24.392Z,30
2017-08-16T05:14:24.073Z,35
2017-08-16T05:15:24.698Z,35
2017-08-16T05:16:24.682Z,40
2017-08-16T05:17:24.967Z,40
2017-08-16T05:18:24.630Z,45
2017-08-16T05:19:24.970Z,45
2017-08-16T05:20:24.644Z,50
2017-08-16T05:21:24.292Z,50
2017-08-16T05:22:24.263Z,50
2017-08-16T05:23:24.561Z,50
2017-08-16T05:24:24.543Z,50
2017-08-16T05:25:24.228Z,55
2017-08-16T05:26:23.915Z,55
2017-08-16T05:27:24.215Z,55
2017-08-16T05:28:24.321Z,55
2017-08-16T05:29:24.532Z,55
2017-08-16T05:30:24.453Z,55
2017-08-16T05:31:24.220Z,60
2017-08-16T05:32:24.424Z,60
2017-08-16T05:33:24.438Z,60
2017-08-16T05:34:24.412Z,60
2017-08-16T05:35:24.491Z,60
2017-08-16T05:36:24.093Z,60
2017-08-16T05:37:24.365Z,60
2017-08-16T05:38:24.652Z,65
2017-08-16T05:39:24.133Z,60
2017-08-16T05:40:24.642Z,55
2017-08-16T05:41:24.333Z,55
2017-08-16T05:42:24.292Z,65
2017-08-16T05:43:24.588Z,65
2017-08-16T05:44:23.961Z,65
2017-08-16T05:45:23.988Z,60
2017-08-16T05:46:24.246Z,50
2017-08-16T05:47:24.210Z,50
2017-08-16T05:48:23.971Z,45
2017-08-16T05:49:24.493Z,45
2017-08-16T05:50:24.209Z,50
2017-08-16T05:51:24.180Z,45
2017-08-16T05:52:24.146Z,45
2017-08-16T05:53:24.132Z,45
2017-08-16T05:54:23.845Z,45
2017-08-16T05:55:24.131Z,45
2017-08-16T05:56:24.190Z,45
2017-08-16T05:57:24.162Z,50
2017-08-16T05:58:24.105Z,50
2017-08-16T05:59:24.489Z,45
2017-08-16T06:00:24.071Z,55
2017-08-16T06:01:24.041Z,60
2017-08-16T06:02:23.411Z,65
2017-08-16T06:03:24.291Z,65
2017-08-16T06:04:24.094Z,65
2017-08-16T06:05:23.980Z,65
2017-08-16T06:06:23.998Z,75
2017-08-16T06:07:24.331Z,85
2017-08-16T06:08:24.330Z,100
2017-08-16T06:09:24.046Z,105
2017-08-16T06:10:24.220Z,115
2017-08-16T06:11:24.270Z,115
2017-08-16T06:12:24.191Z,110
2017-08-16T06:13:24.271Z,115
2017-08-16T06:14:24.232Z,120
2017-08-16T06:15:24.174Z,120
2017-08-16T06:16:24.172Z,125
2017-08-16T06:17:24.151Z,120
2017-08-16T06:18:24.177Z,125
2017-08-16T06:19:24.111Z,125
2017-08-16T06:20:23.481Z,130
2017-08-16T06:21:24.091Z,130
2017-08-16T06:22:23.769Z,130
2017-08-16T06:23:24.051Z,125
2017-08-16T06:24:24.072Z,125
2017-08-16T06:25:24.052Z,130
2017-08-16T06:26:24.021Z,130
2017-08-16T06:27:24.030Z,140
2017-08-16T06:28:23.783Z,150
2017-08-16T06:29:24.073Z,150
2017-08-16T06:30:23.638Z,155
2017-08-16T06:31:23.995Z,160
2017-08-16T06:32:23.601Z,160
2017-08-16T06:33:23.632Z,160
2017-08-16T06:34:23.571Z,160
2017-08-16T06:35:23.281Z,165
2017-08-16T06:36:23.550Z,165
2017-08-16T06:37:23.552Z,170
2017-08-16T06:38:23.852Z,170
2017-08-16T06:39:23.501Z,170
2017-08-16T06:40:23.532Z,170
2017-08-16T06:41:23.817Z,160
2017-08-16T06:42:23.793Z,165
2017-08-16T06:43:23.264Z,170
2017-08-16T06:44:23.761Z,170
2017-08-16T06:45:22.812Z,175
2017-08-16T06:46:23.150Z,175
2017-08-16T06:47:23.720Z,175
2017-08-16T06:48:23.411Z,175
2017-08-16T06:49:23.202Z,170
2017-08-16T06:50:23.707Z,185
2017-08-16T06:51:23.378Z,175
2017-08-16T06:52:23.662Z,170
2017-08-16T06:53:23.652Z,180
2017-08-16T06:54:23.010Z,185
2017-08-16T06:55:23.015Z,185
2017-08-16T06:56:23.651Z,190
2017-08-16T06:57:23.021Z,190
2017-08-16T06:58:23.611Z,195
2017-08-16T06:59:22.982Z,195
2017-08-16T07:00:23.559Z,200
2017-08-16T07:01:23.552Z,185
2017-08-16T07:02:22.924Z,185
2017-08-16T07:03:23.288Z,185
2017-08-16T07:04:23.539Z,180
2017-08-16T07:05:22.897Z,185
2017-08-16T07:06:23.492Z,220
2017-08-16T07:07:23.489Z,225
2017-08-16T07:08:22.871Z,225
2017-08-16T07:09:23.452Z,215
2017-08-16T07:10:22.823Z,235
2017-08-16T07:11:23.151Z,230
2017-08-16T07:12:22.800Z,235
2017-08-16T07:13:23.590Z,240
2017-08-16T07:14:23.147Z,245
2017-08-16T07:15:23.381Z,255
2017-08-16T07:16:23.181Z,260
2017-08-16T07:17:22.763Z,260
2017-08-16T07:18:23.039Z,260
2017-08-16T07:19:23.030Z,265
2017-08-16T07:20:22.703Z,265
2017-08-16T07:21:22.861Z,260
2017-08-16T07:22:23.103Z,265
2017-08-16T07:23:23.013Z,375
2017-08-16T07:24:23.270Z,560
2017-08-16T07:25:22.629Z,765
2017-08-16T07:26:23.266Z,995
2017-08-16T07:27:23.374Z,1195
2017-08-16T07:28:22.918Z,1165
2017-08-16T07:29:22.903Z,1145
2017-08-16T07:30:22.889Z,1150
2017-08-16T07:31:23.311Z,1165
2017-08-16T07:32:23.202Z,1210
2017-08-16T07:33:22.575Z,1175
2017-08-16T07:34:22.857Z,1185
2017-08-16T07:35:23.213Z,1185
2017-08-16T07:36:22.537Z,1195
2017-08-16T07:37:22.538Z,1210
2017-08-16T07:38:23.153Z,1260
2017-08-16T07:39:22.825Z,1280
2017-08-16T07:40:22.506Z,1250
2017-08-16T07:41:22.828Z,1300
2017-08-16T07:42:23.172Z,1360
2017-08-16T07:43:23.123Z,1310
2017-08-16T07:44:22.187Z,1300
2017-08-16T07:45:22.523Z,1295
2017-08-16T07:46:22.817Z,1330
2017-08-16T07:47:23.122Z,1355
2017-08-16T07:48:22.222Z,1340
2017-08-16T07:49:23.112Z,1375
2017-08-16T07:50:23.115Z,1305
2017-08-16T07:51:23.111Z,1305
2017-08-16T07:52:23.112Z,1365
2017-08-16T07:53:22.797Z,1360
2017-08-16T07:54:22.773Z,1275
2017-08-16T07:55:22.770Z,1210
2017-08-16T07:56:22.540Z,1180
2017-08-16T07:57:22.768Z,1240
2017-08-16T07:58:23.092Z,905
2017-08-16T07:59:22.228Z,1385
2017-08-16T08:00:23.141Z,1475
2017-08-16T08:01:22.513Z,1440
2017-08-16T08:02:22.512Z,1435
2017-08-16T08:03:22.835Z,1420
2017-08-16T08:04:23.066Z,1405
2017-08-16T08:05:22.153Z,1445
2017-08-16T08:06:22.149Z,1475
2017-08-16T08:07:22.148Z,1445
2017-08-16T08:08:23.064Z,1420
2017-08-16T08:09:23.093Z,1365
2017-08-16T08:10:22.755Z,1325
2017-08-16T08:11:22.783Z,1405
2017-08-16T08:12:23.089Z,1420
2017-08-16T08:13:22.771Z,1395
2017-08-16T08:14:22.479Z,1355
2017-08-16T08:15:23.092Z,1460
2017-08-16T08:16:23.081Z,1515
2017-08-16T08:17:22.794Z,1440
2017-08-16T08:18:22.787Z,1345
2017-08-16T08:19:22.199Z,1350
2017-08-16T08:20:22.794Z,1435
2017-08-16T08:21:22.912Z,1495
2017-08-16T08:22:22.771Z,1465
2017-08-16T08:23:22.785Z,1360
2017-08-16T08:24:22.818Z,1330
2017-08-16T08:25:23.103Z,1420
2017-08-16T08:26:23.123Z,1460
2017-08-16T08:27:22.899Z,1435
2017-08-16T08:28:23.129Z,1410
2017-08-16T08:29:22.823Z,1455
2017-08-16T08:30:23.192Z,1455
2017-08-16T08:31:22.493Z,1395
2017-08-16T08:32:22.562Z,1340
2017-08-16T08:33:22.508Z,1340
2017-08-16T08:34:22.818Z,1365
2017-08-16T08:35:23.112Z,1380
2017-08-16T08:36:23.138Z,1395
2017-08-16T08:37:23.123Z,1415
2017-08-16T08:38:22.823Z,1450
2017-08-16T08:39:22.529Z,1365
2017-08-16T08:40:22.799Z,1305
2017-08-16T08:41:22.564Z,1305
2017-08-16T08:42:22.828Z,1365
2017-08-16T08:43:23.171Z,1375
2017-08-16T08:44:22.963Z,1385
2017-08-16T08:45:22.559Z,1390
2017-08-16T08:46:23.181Z,1275
2017-08-16T08:47:22.863Z,1325
2017-08-16T08:48:23.282Z,1365
2017-08-16T08:49:22.545Z,1395
2017-08-16T08:50:23.193Z,1490
2017-08-16T08:51:22.897Z,1525
2017-08-16T08:52:23.220Z,1415
2017-08-16T08:53:23.193Z,1360
2017-08-16T08:54:22.574Z,1425
2017-08-16T08:55:22.861Z,1410
2017-08-16T08:56:22.890Z,1360
2017-08-16T08:57:22.565Z,1345
2017-08-16T08:58:22.861Z,1335
2017-08-16T08:59:22.875Z,1355
2017-08-16T09:00:22.891Z,1400
2017-08-16T09:01:22.889Z,1395
2017-08-16T09:02:22.915Z,1350
2017-08-16T09:03:22.577Z,1325
2017-08-16T09:04:23.200Z,1360
2017-08-16T09:05:23.183Z,1315
2017-08-16T09:06:23.201Z,1290
2017-08-16T09:07:23.232Z,1280
2017-08-16T09:08:23.211Z,1295
2017-08-16T09:09:22.896Z,1260
2017-08-16T09:10:22.893Z,1190
2017-08-16T09:11:23.074Z,1125
2017-08-16T09:12:23.240Z,1210
2017-08-16T09:13:22.968Z,1325
2017-08-16T09:14:22.914Z,1350
2017-08-16T09:15:22.349Z,1365
2017-08-16T09:16:21.993Z,1450
2017-08-16T09:17:22.935Z,1410
2017-08-16T09:18:23.282Z,1345
2017-08-16T09:19:22.627Z,1345
2017-08-16T09:20:22.940Z,1390
2017-08-16T09:21:22.955Z,1380
2017-08-16T09:22:22.940Z,1400
2017-08-16T09:23:22.956Z,1435
2017-08-16T09:24:23.251Z,1355
2017-08-16T09:25:23.250Z,1300
2017-08-16T09:26:22.648Z,1270
2017-08-16T09:27:23.281Z,1270
2017-08-16T09:28:22.653Z,1310
2017-08-16T09:29:22.667Z,1235
2017-08-16T09:30:22.957Z,1215
2017-08-16T09:31:23.251Z,1255
2017-08-16T09:32:22.969Z,1280
2017-08-16T09:33:22.970Z,1280
2017-08-16T09:34:22.771Z,1230
2017-08-16T09:35:22.982Z,1145
2017-08-16T09:36:23.343Z,1135
2017-08-16T09:37:23.351Z,1235
2017-08-16T09:38:22.979Z,1210
2017-08-16T09:39:23.288Z,1205
2017-08-16T09:40:22.967Z,1205
2017-08-16T09:41:22.996Z,1195
2017-08-16T09:42:23.021Z,1180
2017-08-16T09:43:22.693Z,1260
2017-08-16T09:44:22.372Z,1230
2017-08-16T09:45:22.684Z,1090
2017-08-16T09:46:22.666Z,1060
2017-08-16T09:47:22.698Z,1070
2017-08-16T09:48:23.045Z,1035
2017-08-16T09:49:23.317Z,980
2017-08-16T09:50:22.685Z,1010
2017-08-16T09:51:23.512Z,1000
2017-08-16T09:52:23.025Z,980
2017-08-16T09:53:23.315Z,990
2017-08-16T09:54:23.009Z,1025
2017-08-16T09:55:22.757Z,1035
2017-08-16T09:56:23.033Z,985
2017-08-16T09:57:23.417Z,1030
2017-08-16T09:58:23.309Z,1125
2017-08-16T09:59:23.062Z,1000
2017-08-16T10:00:22.703Z,970
2017-08-16T10:01:22.686Z,1025
2017-08-16T10:02:23.011Z,950
2017-08-16T10:03:23.352Z,1000
2017-08-16T10:04:23.021Z,1000
2017-08-16T10:05:23.062Z,995
2017-08-16T10:06:22.425Z,1035
2017-08-16T10:07:22.704Z,995
2017-08-16T10:08:23.027Z,930
2017-08-16T10:09:22.426Z,905
2017-08-16T10:10:23.331Z,100
2017-08-16T10:11:23.080Z,95
2017-08-16T10:12:23.010Z,95
2017-08-16T10:13:22.713Z,95
2017-08-16T10:14:23.332Z,100
2017-08-16T10:15:23.332Z,100
2017-08-16T10:16:23.009Z,100
2017-08-16T10:17:23.309Z,100
2017-08-16T10:18:23.126Z,100
2017-08-16T10:19:23.298Z,100
2017-08-16T10:20:23.011Z,100
2017-08-16T10:21:22.693Z,95
2017-08-16T10:22:23.073Z,85
2017-08-16T10:23:22.973Z,95
2017-08-16T10:24:22.982Z,100
2017-08-16T10:25:23.011Z,100
2017-08-16T10:26:23.001Z,100
2017-08-16T10:27:22.958Z,100
2017-08-16T10:28:23.011Z,105
2017-08-16T10:29:22.337Z,105
2017-08-16T10:30:22.961Z,110
2017-08-16T10:31:23.239Z,110
2017-08-16T10:32:22.955Z,110
2017-08-16T10:33:22.975Z,110
2017-08-16T10:34:22.917Z,110
2017-08-16T10:35:23.225Z,110
2017-08-16T10:36:22.607Z,110
2017-08-16T10:37:22.621Z,110
2017-08-16T10:38:23.222Z,110
2017-08-16T10:39:22.676Z,115
2017-08-16T10:40:23.210Z,105
2017-08-16T10:41:22.903Z,95
2017-08-16T10:42:23.180Z,100
2017-08-16T10:43:22.950Z,105
2017-08-16T10:44:22.558Z,110
2017-08-16T10:45:23.169Z,115
2017-08-16T10:46:22.861Z,115
2017-08-16T10:47:22.582Z,115
2017-08-16T10:48:22.853Z,120
2017-08-16T10:49:22.962Z,115
2017-08-16T10:50:22.531Z,120
2017-08-16T10:51:23.171Z,120
2017-08-16T10:52:23.128Z,115
2017-08-16T10:53:23.216Z,110
2017-08-16T10:54:22.826Z,110
2017-08-16T10:55:22.859Z,110
2017-08-16T10:56:22.493Z,110
2017-08-16T10:57:22.896Z,110
2017-08-16T10:58:22.898Z,105
2017-08-16T10:59:22.499Z,105
2017-08-16T11:00:23.091Z,110
2017-08-16T11:01:22.861Z,105
2017-08-16T11:02:22.481Z,105
2017-08-16T11:03:22.749Z,95
2017-08-16T11:04:23.108Z,95
2017-08-16T11:05:22.755Z,105
2017-08-16T11:06:23.058Z,105
2017-08-16T11:07:22.725Z,110
2017-08-16T11:08:22.728Z,115
2017-08-16T11:09:22.442Z,105
2017-08-16T11:10:22.757Z,100
2017-08-16T11:11:22.405Z,105
2017-08-16T11:12:23.030Z,95
2017-08-16T11:13:22.683Z,70
2017-08-16T11:14:22.679Z,85
2017-08-16T11:15:22.831Z,105
2017-08-16T11:16:22.382Z,115
2017-08-16T11:17:22.649Z,125
2017-08-16T11:18:22.951Z,115
2017-08-16T11:19:22.640Z,115
2017-08-16T11:20:22.975Z,110
2017-08-16T11:21:22.952Z,110
2017-08-16T11:22:22.032Z,110
2017-08-16T11:23:22.933Z,105
2017-08-16T11:24:22.620Z,110
2017-08-16T11:25:22.307Z,115
2017-08-16T11:26:22.631Z,115
2017-08-16T11:27:22.301Z,85
2017-08-16T11:28:22.362Z,95
2017-08-16T11:29:22.571Z,110
2017-08-16T11:30:22.908Z,75
2017-08-16T11:31:22.587Z,75
2017-08-16T11:32:21.652Z,90
2017-08-16T11:33:22.576Z,115
2017-08-16T11:34:22.294Z,115
2017-08-16T11:35:22.949Z,115
2017-08-16T11:36:22.352Z,115
2017-08-16T11:37:21.940Z,105
2017-08-16T11:38:22.526Z,100
2017-08-16T11:39:22.534Z,105
2017-08-16T11:40:22.551Z,95
2017-08-16T11:41:22.531Z,105
2017-08-16T11:42:22.773Z,80
2017-08-16T11:43:22.195Z,115
2017-08-16T11:44:22.483Z,70
2017-08-16T11:45:22.768Z,65
2017-08-16T11:46:22.160Z,70
2017-08-16T11:47:22.780Z,65
2017-08-16T11:48:22.448Z,65
2017-08-16T11:49:22.440Z,65
2017-08-16T11:50:22.231Z,60
2017-08-16T11:51:22.512Z,75
2017-08-16T11:52:21.842Z,85
2017-08-16T11:53:22.703Z,85
2017-08-16T11:54:22.103Z,90
2017-08-16T11:55:22.453Z,85
2017-08-16T11:56:21.770Z,85
2017-08-16T11:57:22.441Z,90
2017-08-16T11:58:22.073Z,90
2017-08-16T11:59:22.452Z,85
2017-08-16T12:00:21.742Z,95
2017-08-16T12:01:22.051Z,100
2017-08-16T12:02:22.656Z,90
2017-08-16T12:03:22.421Z,110
2017-08-16T12:04:22.392Z,110
2017-08-16T12:05:21.740Z,110
2017-08-16T12:06:22.319Z,115
2017-08-16T12:07:22.055Z,115
2017-08-16T12:08:22.720Z,100
2017-08-16T12:09:22.307Z,110
2017-08-16T12:10:22.272Z,105
2017-08-16T12:11:22.616Z,105
2017-08-16T12:12:22.876Z,100
2017-08-16T12:13:22.667Z,115
2017-08-16T12:14:21.972Z,80
2017-08-16T12:15:21.634Z,85
2017-08-16T12:16:22.243Z,85
2017-08-16T12:17:21.918Z,85
2017-08-16T12:18:21.940Z,110
2017-08-16T12:19:22.570Z,125
2017-08-16T12:20:22.212Z,130
2017-08-16T12:21:22.205Z,120
2017-08-16T12:22:22.210Z,120
2017-08-16T12:23:22.189Z,120
2017-08-16T12:24:21.868Z,130
2017-08-16T12:25:22.535Z,135
2017-08-16T12:26:22.489Z,130
2017-08-16T12:27:22.526Z,125
2017-08-16T12:28:22.182Z,135
2017-08-16T12:29:21.850Z,125
2017-08-16T12:30:22.145Z,130
2017-08-16T12:31:22.455Z,130
2017-08-16T12:32:22.428Z,130
2017-08-16T12:33:22.414Z,125
2017-08-16T12:34:22.113Z,120
2017-08-16T12:35:21.781Z,120
2017-08-16T12:36:22.109Z,120
2017-08-16T12:37:21.802Z,90
2017-08-16T12:38:22.073Z,90
2017-08-16T12:39:22.070Z,100
2017-08-16T12:40:21.871Z,105
2017-08-16T12:41:22.067Z,105
2017-08-16T12:42:22.360Z,110
2017-08-16T12:43:22.339Z,115
2017-08-16T12:44:21.792Z,120
2017-08-16T12:45:21.720Z,110
2017-08-16T12:46:21.719Z,115
2017-08-16T12:47:21.419Z,105
2017-08-16T12:48:22.114Z,95
2017-08-16T12:49:21.724Z,110
2017-08-16T12:50:21.698Z,105
2017-08-16T12:51:22.288Z,105
2017-08-16T12:52:21.975Z,110
2017-08-16T12:53:21.967Z,120
2017-08-16T12:54:21.688Z,120
2017-08-16T12:55:21.652Z,115
2017-08-16T12:56:21.642Z,115
2017-08-16T12:57:22.331Z,115
2017-08-16T12:58:22.281Z,90
2017-08-16T12:59:21.918Z,80
2017-08-16T13:00:21.923Z,75
2017-08-16T13:01:22.266Z,75
2017-08-16T13:02:21.606Z,100
2017-08-16T13:03:21.631Z,100
2017-08-16T13:04:22.200Z,60
2017-08-16T13:05:22.284Z,65
2017-08-16T13:06:21.587Z,60
2017-08-16T13:07:21.897Z,80
2017-08-16T13:08:21.875Z,60
2017-08-16T13:09:21.869Z,65
2017-08-16T13:10:21.868Z,60
2017-08-16T13:11:21.862Z,60
2017-08-16T13:12:21.847Z,65
2017-08-16T13:13:21.851Z,70
2017-08-16T13:14:22.123Z,70
2017-08-16T13:15:21.960Z,70
2017-08-16T13:16:21.828Z,70
2017-08-16T13:17:21.621Z,70
2017-08-16T13:18:21.804Z,70
2017-08-16T13:19:21.798Z,70
2017-08-16T13:20:22.095Z,70
2017-08-16T13:21:21.810Z,100
2017-08-16T13:22:21.752Z,110
2017-08-16T13:23:21.795Z,110
2017-08-16T13:24:22.065Z,100
2017-08-16T13:25:21.730Z,50
2017-08-16T13:26:21.438Z,50
2017-08-16T13:27:21.720Z,50
2017-08-16T13:28:22.026Z,50
2017-08-16T13:29:21.749Z,55
2017-08-16T13:30:20.795Z,60
2017-08-16T13:31:21.706Z,60
2017-08-16T13:32:21.382Z,60
2017-08-16T13:33:21.998Z,60
2017-08-16T13:34:21.667Z,65
2017-08-16T13:35:21.712Z,65
2017-08-16T13:36:21.692Z,65
2017-08-16T13:37:21.681Z,65
2017-08-16T13:38:21.968Z,70
2017-08-16T13:39:21.748Z,70
2017-08-16T13:40:21.620Z,75
2017-08-16T13:41:21.684Z,80
2017-08-16T13:42:21.976Z,115
2017-08-16T13:43:21.588Z,115
2017-08-16T13:44:21.880Z,110
2017-08-16T13:45:21.601Z,100
2017-08-16T13:46:21.886Z,70
2017-08-16T13:47:21.557Z,85
2017-08-16T13:48:21.568Z,80
2017-08-16T13:49:21.560Z,70
2017-08-16T13:50:21.858Z,60
2017-08-16T13:51:21.543Z,50
2017-08-16T13:52:21.818Z,45
2017-08-16T13:53:21.219Z,45
2017-08-16T13:54:21.560Z,45
2017-08-16T13:55:21.799Z,45
2017-08-16T13:56:21.809Z,45
2017-08-16T13:57:21.799Z,45
2017-08-16T13:58:21.786Z,45
2017-08-16T13:59:21.789Z,50
2017-08-16T14:00:21.770Z,50
2017-08-16T14:01:21.781Z,50
2017-08-16T14:02:21.471Z,50
2017-08-16T14:03:21.165Z,55
2017-08-16T14:04:21.443Z,55
2017-08-16T14:05:21.734Z,55
2017-08-16T14:06:21.737Z,65